createdAt,value
2018-09-17T00:00:37.561Z,19.10
2018-09-17T00:01:39.717Z,19.10
2018-09-17T00:02:41.896Z,19.10
2018-09-17T00:03:44.043Z,19.10
2018-09-17T00:04:46.379Z,19.10
2018-09-17T00:05:48.525Z,19.10
2018-09-17T00:06:50.781Z,19.10
2018-09-17T00:07:52.894Z,19.10
2018-09-17T00:08:55.232Z,19.10
2018-09-17T00:09:57.414Z,19.10
2018-09-17T00:10:59.752Z,19.10
2018-09-17T00:12:01.884Z,19.10
2018-09-17T00:13:04.292Z,19.10
2018-09-17T00:14:06.439Z,19.10
2018-09-17T00:15:08.609Z,19.10
2018-09-17T00:16:10.765Z,19.00
2018-09-17T00:17:12.898Z,19.10
2018-09-17T00:18:15.461Z,19.10
2018-09-17T00:19:17.559Z,19.10
2018-09-17T00:20:19.716Z,19.10
2018-09-17T00:21:21.878Z,19.00
2018-09-17T00:22:23.994Z,19.00
2018-09-17T00:23:26.423Z,19.00
2018-09-17T00:24:28.534Z,19.00
2018-09-17T00:25:30.887Z,19.00
2018-09-17T00:26:33.053Z,19.00
2018-09-17T00:27:35.193Z,19.00
2018-09-17T00:28:37.347Z,19.00
2018-09-17T00:29:39.546Z,18.90
2018-09-17T00:30:41.653Z,19.00
2018-09-17T00:31:43.760Z,19.00
2018-09-17T00:32:45.891Z,19.00
2018-09-17T00:33:48.254Z,19.00
2018-09-17T00:34:50.393Z,19.00
2018-09-17T00:35:52.532Z,19.00
2018-09-17T00:36:54.713Z,18.90
2018-09-17T00:37:57.208Z,18.90
2018-09-17T00:38:59.333Z,18.90
2018-09-17T00:40:01.485Z,18.90
2018-09-17T00:41:03.697Z,18.90
2018-09-17T00:42:05.629Z,18.90
2018-09-17T00:43:07.892Z,18.90
2018-09-17T00:44:10.015Z,18.90
2018-09-17T00:45:12.146Z,18.90
2018-09-17T00:46:14.590Z,18.90
2018-09-17T00:47:16.722Z,18.90
2018-09-17T00:48:18.852Z,18.90
2018-09-17T00:49:20.968Z,18.90
2018-09-17T00:50:23.312Z,18.90
2018-09-17T00:51:25.469Z,18.90
2018-09-17T00:52:27.700Z,18.90
2018-09-17T00:53:29.833Z,18.80
2018-09-17T00:54:31.965Z,18.80
2018-09-17T00:55:34.118Z,18.80
2018-09-17T00:56:36.237Z,18.80
2018-09-17T00:57:38.487Z,18.80
2018-09-17T00:58:40.606Z,18.80
2018-09-17T00:59:43.029Z,18.80
2018-09-17T01:00:45.162Z,18.80
2018-09-17T01:01:47.281Z,18.60
2018-09-17T01:02:49.569Z,18.80
2018-09-17T01:03:51.748Z,18.80
2018-09-17T01:04:53.905Z,18.70
2018-09-17T01:05:56.058Z,18.80
2018-09-17T01:06:58.478Z,18.80
2018-09-17T01:08:00.630Z,18.80
2018-09-17T01:09:04.270Z,18.80
2018-09-17T01:10:06.482Z,18.80
2018-09-17T01:11:09.307Z,18.80
2018-09-17T01:12:13.304Z,18.80
2018-09-17T01:13:15.466Z,18.80
2018-09-17T01:14:17.620Z,18.80
2018-09-17T01:15:19.798Z,18.80
2018-09-17T01:16:21.937Z,18.80
2018-09-17T01:17:24.115Z,18.80
2018-09-17T01:18:26.246Z,18.80
2018-09-17T01:19:28.384Z,18.80
2018-09-17T01:20:30.561Z,18.80
2018-09-17T01:21:32.727Z,18.80
2018-09-17T01:22:34.872Z,18.70
2018-09-17T01:23:37.016Z,18.70
2018-09-17T01:24:39.127Z,18.70
2018-09-17T01:25:41.567Z,18.70
2018-09-17T01:26:43.942Z,18.60
2018-09-17T01:27:46.053Z,18.60
2018-09-17T01:28:48.428Z,18.60
2018-09-17T01:29:50.991Z,18.60
2018-09-17T01:30:53.212Z,18.60
2018-09-17T01:31:55.438Z,18.60
2018-09-17T01:32:57.576Z,18.60
2018-09-17T01:33:59.738Z,18.60
2018-09-17T01:35:01.887Z,18.60
2018-09-17T01:36:04.356Z,18.60
2018-09-17T01:37:06.545Z,18.60
2018-09-17T01:38:08.713Z,18.50
2018-09-17T01:39:11.522Z,18.50
2018-09-17T01:40:13.629Z,18.50
2018-09-17T01:41:15.798Z,18.50
2018-09-17T01:42:17.895Z,18.50
2018-09-17T01:43:20.318Z,18.50
2018-09-17T01:44:22.768Z,18.50
2018-09-17T01:45:24.966Z,18.50
2018-09-17T01:46:27.095Z,18.50
2018-09-17T01:47:29.225Z,18.50
2018-09-17T01:48:31.354Z,18.50
2018-09-17T01:49:33.461Z,18.50
2018-09-17T01:50:35.977Z,18.50
2018-09-17T01:51:38.080Z,18.50
2018-09-17T01:52:40.186Z,18.50
2018-09-17T01:53:42.277Z,18.50
2018-09-17T01:54:44.485Z,18.50
2018-09-17T01:55:46.611Z,18.50
2018-09-17T01:56:48.797Z,18.50
2018-09-17T01:57:50.946Z,18.50
2018-09-17T01:58:53.092Z,18.50
2018-09-17T01:59:55.217Z,18.50
2018-09-17T02:00:57.360Z,18.50
2018-09-17T02:01:59.579Z,18.50
2018-09-17T02:03:01.774Z,18.40
2018-09-17T02:04:03.924Z,18.40
2018-09-17T02:05:06.129Z,18.40
2018-09-17T02:06:08.279Z,18.40
2018-09-17T02:07:10.382Z,18.40
2018-09-17T02:08:12.552Z,18.40
2018-09-17T02:09:14.691Z,18.40
2018-09-17T02:10:16.778Z,18.40
2018-09-17T02:11:18.937Z,18.40
2018-09-17T02:12:21.070Z,18.40
2018-09-17T02:13:23.301Z,18.40
2018-09-17T02:14:25.450Z,18.50
2018-09-17T02:15:27.877Z,18.50
2018-09-17T02:16:30.017Z,18.40
2018-09-17T02:17:32.465Z,18.40
2018-09-17T02:18:34.645Z,18.40
2018-09-17T02:19:37.290Z,18.40
2018-09-17T02:20:39.404Z,18.40
2018-09-17T02:21:41.557Z,18.40
2018-09-17T02:22:43.703Z,18.40
2018-09-17T02:23:45.817Z,18.40
2018-09-17T02:24:47.992Z,18.30
2018-09-17T02:25:50.138Z,18.40
2018-09-17T02:26:52.282Z,18.30
2018-09-17T02:27:54.413Z,18.30
2018-09-17T02:28:56.549Z,18.40
2018-09-17T02:29:58.693Z,18.30
2018-09-17T02:31:00.850Z,18.30
2018-09-17T02:32:03.106Z,18.30
2018-09-17T02:33:05.232Z,18.40
2018-09-17T02:34:07.441Z,18.30
2018-09-17T02:35:09.549Z,18.40
2018-09-17T02:36:11.727Z,18.40
2018-09-17T02:37:13.861Z,18.40
2018-09-17T02:38:15.980Z,18.30
2018-09-17T02:39:18.135Z,18.30
2018-09-17T02:40:20.290Z,18.30
2018-09-17T02:41:22.412Z,18.30
2018-09-17T02:42:24.877Z,18.30
2018-09-17T02:43:27.041Z,18.30
2018-09-17T02:44:29.457Z,18.30
2018-09-17T02:45:31.853Z,18.30
2018-09-17T02:46:34.141Z,18.30
2018-09-17T02:47:36.352Z,18.30
2018-09-17T02:48:38.685Z,18.30
2018-09-17T02:49:40.789Z,18.30
2018-09-17T02:50:42.974Z,18.30
2018-09-17T02:51:45.360Z,18.20
2018-09-17T02:52:47.495Z,18.20
2018-09-17T02:53:49.627Z,18.20
2018-09-17T02:54:51.752Z,18.20
2018-09-17T02:55:53.913Z,18.20
2018-09-17T02:56:56.254Z,18.20
2018-09-17T02:57:58.381Z,18.20
2018-09-17T02:59:00.527Z,18.20
2018-09-17T03:00:02.804Z,18.20
2018-09-17T03:01:04.982Z,18.20
2018-09-17T03:02:07.109Z,18.20
2018-09-17T03:03:09.250Z,18.20
2018-09-17T03:04:11.801Z,18.20
2018-09-17T03:05:13.946Z,18.10
2018-09-17T03:06:16.089Z,18.10
2018-09-17T03:07:18.234Z,18.10
2018-09-17T03:08:20.354Z,18.10
2018-09-17T03:09:22.506Z,18.10
2018-09-17T03:10:24.623Z,18.10
2018-09-17T03:11:26.777Z,18.00
2018-09-17T03:12:28.945Z,18.00
2018-09-17T03:13:31.067Z,18.00
2018-09-17T03:14:33.281Z,18.00
2018-09-17T03:15:44.802Z,18.00
2018-09-17T03:16:58.553Z,18.00
2018-09-17T03:18:00.717Z,18.00
2018-09-17T03:19:03.186Z,18.00
2018-09-17T03:20:05.342Z,18.00
2018-09-17T03:21:07.693Z,18.00
2018-09-17T03:22:10.245Z,17.90
2018-09-17T03:23:12.381Z,17.90
2018-09-17T03:24:14.525Z,17.90
2018-09-17T03:25:16.655Z,17.90
2018-09-17T03:26:19.164Z,17.90
2018-09-17T03:27:21.299Z,17.90
2018-09-17T03:28:23.534Z,17.90
2018-09-17T03:29:25.685Z,17.90
2018-09-17T03:30:27.822Z,17.90
2018-09-17T03:31:29.954Z,17.90
2018-09-17T03:32:32.080Z,17.90
2018-09-17T03:33:34.218Z,17.90
2018-09-17T03:34:36.386Z,17.90
2018-09-17T03:35:38.509Z,17.90
2018-09-17T03:36:40.763Z,18.00
2018-09-17T03:37:42.898Z,17.90
2018-09-17T03:38:46.318Z,17.90
2018-09-17T03:39:48.474Z,17.90
2018-09-17T03:40:50.621Z,17.90
2018-09-17T03:41:52.781Z,18.10
2018-09-17T03:42:55.005Z,18.00
2018-09-17T03:43:57.141Z,18.00
2018-09-17T03:44:59.277Z,18.00
2018-09-17T03:46:01.462Z,18.00
2018-09-17T03:47:03.669Z,18.00
2018-09-17T03:48:06.156Z,18.00
2018-09-17T03:49:08.351Z,18.00
2018-09-17T03:50:10.503Z,18.00
2018-09-17T03:51:13.071Z,17.90
2018-09-17T03:52:15.271Z,18.00
2018-09-17T03:53:17.422Z,18.00
2018-09-17T03:54:19.793Z,18.00
2018-09-17T03:55:21.941Z,18.00
2018-09-17T03:56:24.100Z,17.90
2018-09-17T03:57:26.268Z,17.90
2018-09-17T03:58:29.032Z,17.90
2018-09-17T03:59:31.189Z,17.90
2018-09-17T04:00:33.577Z,17.90
2018-09-17T04:01:35.782Z,18.00
2018-09-17T04:02:37.925Z,18.00
2018-09-17T04:03:40.077Z,17.90
2018-09-17T04:04:42.213Z,17.80
2018-09-17T04:05:44.349Z,17.90
2018-09-17T04:06:46.522Z,17.90
2018-09-17T04:07:48.660Z,17.90
2018-09-17T04:08:50.818Z,17.80
2018-09-17T04:09:52.965Z,17.80
2018-09-17T04:10:55.090Z,17.80
2018-09-17T04:11:57.225Z,17.80
2018-09-17T04:12:59.405Z,17.80
2018-09-17T04:14:01.552Z,17.80
2018-09-17T04:15:03.730Z,17.80
2018-09-17T04:16:05.904Z,17.80
2018-09-17T04:17:08.094Z,17.70
2018-09-17T04:18:10.250Z,17.70
2018-09-17T04:19:12.443Z,17.70
2018-09-17T04:20:14.611Z,17.70
2018-09-17T04:21:17.001Z,17.70
2018-09-17T04:22:19.153Z,17.70
2018-09-17T04:23:28.894Z,17.80
2018-09-17T04:24:31.021Z,17.80
2018-09-17T04:25:33.187Z,17.70
2018-09-17T04:26:35.342Z,17.70
2018-09-17T04:27:37.733Z,17.70
2018-09-17T04:28:40.185Z,17.80
2018-09-17T04:29:42.383Z,17.80
2018-09-17T04:30:44.625Z,17.70
2018-09-17T04:31:46.779Z,17.70
2018-09-17T04:32:50.049Z,17.80
2018-09-17T04:33:52.195Z,17.70
2018-09-17T04:34:54.775Z,17.70
2018-09-17T04:35:56.936Z,17.70
2018-09-17T04:36:59.330Z,17.70
2018-09-17T04:38:01.495Z,17.70
2018-09-17T04:39:06.190Z,17.70
2018-09-17T04:40:08.534Z,17.70
2018-09-17T04:41:10.717Z,17.70
2018-09-17T04:42:12.882Z,17.70
2018-09-17T04:43:15.044Z,17.70
2018-09-17T04:44:17.225Z,17.80
2018-09-17T04:45:19.400Z,17.80
2018-09-17T04:46:21.529Z,17.80
2018-09-17T04:47:23.782Z,17.80
2018-09-17T04:48:25.974Z,17.90
2018-09-17T04:49:28.109Z,17.80
2018-09-17T04:50:30.267Z,17.80
2018-09-17T04:51:32.394Z,17.70
2018-09-17T04:52:34.525Z,17.70
2018-09-17T04:53:36.725Z,17.70
2018-09-17T04:54:38.842Z,17.60
2018-09-17T04:55:40.983Z,17.60
2018-09-17T04:56:43.111Z,17.60
2018-09-17T04:57:45.259Z,17.60
2018-09-17T04:58:47.707Z,17.60
2018-09-17T04:59:49.858Z,17.50
2018-09-17T05:00:52.146Z,17.50
2018-09-17T05:01:54.519Z,17.50
2018-09-17T05:02:56.673Z,17.40
2018-09-17T05:03:58.837Z,17.40
2018-09-17T05:05:00.965Z,17.40
2018-09-17T05:06:03.166Z,17.40
2018-09-17T05:07:05.313Z,17.40
2018-09-17T05:08:07.789Z,17.40
2018-09-17T05:09:09.935Z,17.40
2018-09-17T05:10:12.324Z,17.30
2018-09-17T05:11:14.825Z,17.30
2018-09-17T05:12:17.270Z,17.30
2018-09-17T05:13:19.488Z,17.30
2018-09-17T05:14:21.590Z,17.30
2018-09-17T05:15:23.745Z,17.40
2018-09-17T05:16:26.174Z,17.30
2018-09-17T05:17:29.447Z,17.30
2018-09-17T05:18:31.889Z,17.40
2018-09-17T05:19:34.079Z,17.30
2018-09-17T05:20:36.232Z,17.30
2018-09-17T05:21:38.380Z,17.30
2018-09-17T05:22:40.558Z,17.30
2018-09-17T05:23:42.750Z,17.30
2018-09-17T05:24:44.928Z,17.30
2018-09-17T05:25:47.097Z,17.30
2018-09-17T05:26:49.309Z,17.30
2018-09-17T05:27:51.847Z,17.30
2018-09-17T05:28:53.996Z,17.30
2018-09-17T05:29:56.155Z,17.30
2018-09-17T05:30:58.316Z,17.30
2018-09-17T05:32:00.446Z,17.30
2018-09-17T05:33:02.615Z,17.30
2018-09-17T05:34:04.822Z,17.30
2018-09-17T05:35:07.051Z,17.30
2018-09-17T05:36:09.123Z,17.30
2018-09-17T05:37:11.285Z,17.40
2018-09-17T05:38:13.516Z,17.30
2018-09-17T05:39:15.732Z,17.30
2018-09-17T05:40:18.186Z,17.30
2018-09-17T05:41:20.341Z,17.30
2018-09-17T05:42:22.499Z,17.20
2018-09-17T05:43:24.612Z,17.20
2018-09-17T05:44:26.805Z,17.20
2018-09-17T05:45:29.133Z,17.20
2018-09-17T05:46:31.274Z,17.20
2018-09-17T05:47:33.416Z,17.20
2018-09-17T05:48:35.529Z,17.10
2018-09-17T05:49:37.886Z,17.20
2018-09-17T05:50:40.058Z,17.20
2018-09-17T05:51:42.198Z,17.10
2018-09-17T05:52:44.320Z,17.10
2018-09-17T05:53:46.543Z,17.20
2018-09-17T05:54:48.630Z,17.20
2018-09-17T05:55:50.788Z,17.20
2018-09-17T05:56:52.946Z,17.20
2018-09-17T05:57:55.058Z,17.20
2018-09-17T05:58:57.406Z,17.20
2018-09-17T05:59:59.538Z,17.20
2018-09-17T06:01:01.661Z,17.20
2018-09-17T06:02:03.794Z,17.20
2018-09-17T06:03:05.937Z,17.20
2018-09-17T06:04:08.075Z,17.20
2018-09-17T06:05:10.214Z,17.20
2018-09-17T06:06:12.334Z,17.20
2018-09-17T06:07:14.448Z,17.20
2018-09-17T06:08:16.666Z,17.20
2018-09-17T06:09:18.858Z,17.20
2018-09-17T06:10:21.187Z,17.20
2018-09-17T06:11:23.318Z,17.20
2018-09-17T06:12:25.521Z,17.20
2018-09-17T06:13:27.647Z,17.20
2018-09-17T06:14:29.837Z,17.20
2018-09-17T06:15:31.931Z,17.30
2018-09-17T06:16:34.071Z,17.30
2018-09-17T06:17:36.301Z,17.30
2018-09-17T06:18:38.454Z,17.30
2018-09-17T06:19:40.588Z,17.30
2018-09-17T06:20:42.776Z,17.30
2018-09-17T06:21:44.903Z,17.30
2018-09-17T06:22:47.044Z,17.30
2018-09-17T06:23:49.194Z,17.40
2018-09-17T06:24:51.337Z,17.40
2018-09-17T06:25:54.497Z,17.40
2018-09-17T06:26:56.654Z,17.40
2018-09-17T06:27:58.834Z,17.40
2018-09-17T06:29:00.932Z,17.40
2018-09-17T06:30:03.381Z,17.50
2018-09-17T06:31:05.525Z,17.50
2018-09-17T06:32:07.649Z,17.50
2018-09-17T06:33:10.095Z,17.50
2018-09-17T06:34:12.256Z,17.50
2018-09-17T06:35:14.622Z,17.50
2018-09-17T06:36:17.382Z,17.50
2018-09-17T06:37:19.477Z,17.60
2018-09-17T06:38:21.602Z,17.50
2018-09-17T06:39:23.733Z,17.60
2018-09-17T06:40:25.892Z,17.60
2018-09-17T06:41:28.577Z,17.60
2018-09-17T06:42:30.720Z,17.60
2018-09-17T06:43:32.843Z,17.60
2018-09-17T06:44:34.978Z,17.60
2018-09-17T06:45:37.118Z,17.60
2018-09-17T06:46:39.563Z,17.60
2018-09-17T06:47:41.653Z,17.60
2018-09-17T06:48:43.777Z,17.70
2018-09-17T06:49:46.183Z,17.70
2018-09-17T06:50:48.336Z,17.70
2018-09-17T06:51:50.566Z,17.70
2018-09-17T06:52:52.939Z,17.70
2018-09-17T06:53:55.575Z,17.80
2018-09-17T06:54:57.704Z,17.80
2018-09-17T06:55:59.829Z,17.80
2018-09-17T06:57:01.957Z,17.80
2018-09-17T06:58:04.095Z,17.80
2018-09-17T06:59:06.458Z,17.80
2018-09-17T07:00:08.621Z,17.80
2018-09-17T07:01:10.791Z,17.90
2018-09-17T07:02:13.255Z,17.90
2018-09-17T07:03:15.360Z,18.00
2018-09-17T07:04:17.467Z,18.00
2018-09-17T07:05:19.741Z,18.00
2018-09-17T07:06:22.125Z,18.10
2018-09-17T07:07:24.257Z,18.10
2018-09-17T07:08:26.413Z,18.10
2018-09-17T07:09:28.568Z,18.10
2018-09-17T07:10:30.703Z,18.20
2018-09-17T07:11:33.050Z,18.20
2018-09-17T07:12:35.167Z,18.20
2018-09-17T07:13:37.322Z,18.20
2018-09-17T07:14:39.436Z,18.20
2018-09-17T07:15:41.579Z,18.20
2018-09-17T07:16:43.765Z,18.20
2018-09-17T07:17:45.917Z,18.20
2018-09-17T07:18:48.051Z,18.20
2018-09-17T07:19:50.417Z,18.20
2018-09-17T07:20:52.881Z,18.30
2018-09-17T07:21:55.071Z,18.30
2018-09-17T07:22:57.212Z,18.40
2018-09-17T07:23:59.389Z,18.40
2018-09-17T07:25:01.529Z,18.50
2018-09-17T07:26:03.981Z,18.50
2018-09-17T07:27:06.129Z,18.60
2018-09-17T07:28:08.351Z,18.60
2018-09-17T07:29:10.519Z,18.60
2018-09-17T07:30:12.694Z,18.70
2018-09-17T07:31:15.835Z,18.70
2018-09-17T07:32:17.993Z,18.70
2018-09-17T07:33:20.140Z,18.80
2018-09-17T07:34:23.137Z,18.70
2018-09-17T07:35:25.294Z,18.80
2018-09-17T07:36:27.488Z,18.80
2018-09-17T07:37:29.599Z,18.80
2018-09-17T07:38:31.762Z,18.90
2018-09-17T07:39:33.881Z,18.90
2018-09-17T07:40:36.029Z,18.90
2018-09-17T07:41:38.273Z,19.00
2018-09-17T07:42:40.396Z,19.00
2018-09-17T07:43:42.554Z,19.00
2018-09-17T07:44:44.686Z,19.00
2018-09-17T07:45:47.069Z,19.10
2018-09-17T07:46:49.309Z,19.10
2018-09-17T07:47:51.519Z,19.10
2018-09-17T07:48:53.631Z,19.10
2018-09-17T07:49:55.831Z,19.20
2018-09-17T07:50:58.076Z,19.20
2018-09-17T07:52:00.331Z,19.30
2018-09-17T07:53:02.529Z,19.30
2018-09-17T07:54:04.662Z,19.30
2018-09-17T07:55:06.860Z,19.40
2018-09-17T07:56:08.982Z,19.40
2018-09-17T07:57:11.130Z,19.40
2018-09-17T07:58:13.254Z,19.40
2018-09-17T07:59:15.378Z,19.40
2018-09-17T08:00:17.610Z,19.40
2018-09-17T08:01:19.763Z,19.40
2018-09-17T08:02:21.897Z,19.40
2018-09-17T08:03:24.178Z,19.40
2018-09-17T08:04:26.331Z,19.50
2018-09-17T08:05:28.562Z,19.50
2018-09-17T08:06:30.729Z,19.50
2018-09-17T08:07:32.862Z,19.50
2018-09-17T08:08:34.972Z,19.50
2018-09-17T08:09:37.338Z,19.50
2018-09-17T08:10:39.483Z,19.60
2018-09-17T08:11:42.621Z,19.60
2018-09-17T08:12:45.019Z,19.60
2018-09-17T08:13:47.449Z,19.70
2018-09-17T08:14:49.893Z,19.70
2018-09-17T08:15:52.022Z,19.80
2018-09-17T08:16:54.439Z,19.90
2018-09-17T08:17:56.542Z,19.90
2018-09-17T08:18:58.686Z,19.90
2018-09-17T08:20:00.818Z,19.90
2018-09-17T08:21:03.027Z,20.00
2018-09-17T08:22:05.252Z,20.00
2018-09-17T08:23:07.376Z,20.00
2018-09-17T08:24:09.521Z,20.00
2018-09-17T08:25:11.724Z,20.10
2018-09-17T08:26:13.879Z,20.10
2018-09-17T08:27:16.031Z,20.10
2018-09-17T08:28:18.177Z,20.20
2018-09-17T08:29:20.316Z,20.20
2018-09-17T08:30:22.457Z,20.30
2018-09-17T08:31:24.668Z,20.30
2018-09-17T08:32:27.366Z,20.30
2018-09-17T08:33:29.530Z,20.40
2018-09-17T08:34:31.693Z,20.40
2018-09-17T08:35:33.898Z,20.40
2018-09-17T08:36:36.375Z,20.60
2018-09-17T08:37:38.514Z,20.50
2018-09-17T08:38:40.727Z,20.60
2018-09-17T08:40:50.821Z,20.60
2018-09-17T08:41:52.972Z,20.80
2018-09-17T08:42:55.109Z,20.80
2018-09-17T08:43:57.282Z,20.80
2018-09-17T08:44:59.837Z,20.90
2018-09-17T08:46:01.989Z,20.90
2018-09-17T08:47:04.153Z,21.00
2018-09-17T08:48:06.329Z,21.00
2018-09-17T08:49:08.530Z,21.00
2018-09-17T08:50:10.686Z,21.00
2018-09-17T08:51:12.830Z,21.10
2018-09-17T08:52:15.365Z,21.10
2018-09-17T08:53:17.523Z,21.20
2018-09-17T08:54:19.678Z,21.20
2018-09-17T08:55:27.644Z,21.20
2018-09-17T08:56:35.648Z,21.20
2018-09-17T08:57:44.300Z,21.30
2018-09-17T08:59:50.749Z,21.30
2018-09-17T09:00:58.716Z,21.30
2018-09-17T09:02:06.541Z,21.30
2018-09-17T09:03:10.623Z,21.40
2018-09-17T09:04:18.410Z,21.40
2018-09-17T09:05:26.243Z,21.30
2018-09-17T09:06:29.279Z,21.40
2018-09-17T09:07:35.721Z,21.40
2018-09-17T09:08:37.849Z,21.40
2018-09-17T09:09:39.998Z,21.50
2018-09-17T09:10:46.435Z,21.50
2018-09-17T09:11:54.403Z,21.50
2018-09-17T09:13:02.308Z,21.50
2018-09-17T09:14:06.584Z,21.60
2018-09-17T09:15:14.478Z,21.60
2018-09-17T09:16:16.634Z,21.60
2018-09-17T09:17:18.766Z,21.70
2018-09-17T09:18:20.977Z,21.80
2018-09-17T09:19:23.096Z,21.70
2018-09-17T09:20:25.278Z,21.80
2018-09-17T09:21:27.453Z,21.80
2018-09-17T09:22:30.270Z,21.80
2018-09-17T09:23:32.654Z,21.80
2018-09-17T09:24:35.460Z,21.80
2018-09-17T09:25:37.593Z,21.90
2018-09-17T09:26:39.711Z,21.90
2018-09-17T09:27:41.877Z,22.10
2018-09-17T09:28:44.042Z,21.80
2018-09-17T09:29:46.213Z,22.10
2018-09-17T09:30:48.650Z,22.10
2018-09-17T09:31:50.871Z,22.10
2018-09-17T09:32:53.273Z,22.20
2018-09-17T09:33:55.425Z,22.20
2018-09-17T09:34:57.794Z,22.30
2018-09-17T09:35:59.999Z,22.30
2018-09-17T09:37:02.178Z,22.40
2018-09-17T09:38:04.446Z,22.30
2018-09-17T09:39:08.012Z,22.30
2018-09-17T09:40:10.193Z,22.30
2018-09-17T09:41:12.645Z,22.40
2018-09-17T09:42:14.828Z,22.40
2018-09-17T09:43:17.028Z,22.40
2018-09-17T09:44:19.174Z,22.50
2018-09-17T09:45:21.363Z,22.50
2018-09-17T09:46:23.490Z,22.50
2018-09-17T09:47:25.646Z,22.50
2018-09-17T09:48:27.791Z,22.50
2018-09-17T09:49:29.950Z,22.50
2018-09-17T09:50:32.778Z,22.50
2018-09-17T09:51:35.149Z,22.50
2018-09-17T09:52:37.581Z,22.50
2018-09-17T09:53:39.746Z,22.60
2018-09-17T09:54:41.940Z,22.60
2018-09-17T09:55:44.144Z,22.60
2018-09-17T09:56:47.042Z,22.80
2018-09-17T09:57:49.191Z,22.70
2018-09-17T09:58:51.366Z,22.70
2018-09-17T09:59:53.527Z,22.80
2018-09-17T10:01:01.343Z,22.80
2018-09-17T10:02:09.201Z,22.90
2018-09-17T10:04:14.395Z,22.90
2018-09-17T10:05:16.548Z,22.80
2018-09-17T10:06:19.146Z,23.10
2018-09-17T10:07:21.307Z,23.10
2018-09-17T10:08:23.681Z,23.10
2018-09-17T10:09:31.714Z,23.20
2018-09-17T10:10:39.769Z,23.20
2018-09-17T10:11:47.624Z,23.20
2018-09-17T10:12:55.654Z,23.20
2018-09-17T10:14:03.441Z,23.20
2018-09-17T10:15:11.339Z,23.20
2018-09-17T10:16:18.349Z,23.30
2018-09-17T10:17:26.562Z,23.30
2018-09-17T10:18:34.527Z,23.40
2018-09-17T10:19:41.266Z,23.40
2018-09-17T10:20:43.409Z,23.40
2018-09-17T10:21:45.827Z,23.50
2018-09-17T10:22:48.047Z,23.50
2018-09-17T10:23:50.422Z,23.60
2018-09-17T10:24:52.613Z,23.60
2018-09-17T10:25:54.784Z,23.60
2018-09-17T10:26:56.996Z,23.70
2018-09-17T10:27:59.146Z,23.60
2018-09-17T10:29:01.305Z,23.70
2018-09-17T10:30:03.530Z,23.70
2018-09-17T10:31:05.665Z,23.70
2018-09-17T10:32:07.846Z,23.70
2018-09-17T10:33:10.033Z,23.70
2018-09-17T10:34:12.246Z,23.70
2018-09-17T10:35:14.396Z,23.70
2018-09-17T10:36:16.546Z,23.70
2018-09-17T10:37:18.692Z,23.80
2018-09-17T10:38:21.083Z,23.80
2018-09-17T10:39:23.267Z,23.80
2018-09-17T10:40:25.446Z,23.90
2018-09-17T10:41:27.579Z,23.90
2018-09-17T10:42:29.724Z,24.00
2018-09-17T10:43:31.883Z,24.00
2018-09-17T10:44:34.127Z,24.00
2018-09-17T10:45:36.457Z,24.00
2018-09-17T10:46:38.620Z,24.00
2018-09-17T10:47:40.821Z,24.10
2018-09-17T10:48:42.975Z,24.10
2018-09-17T10:49:45.137Z,24.10
2018-09-17T10:50:47.286Z,24.20
2018-09-17T10:51:49.834Z,24.20
2018-09-17T10:52:52.013Z,24.20
2018-09-17T10:53:54.193Z,24.30
2018-09-17T10:54:56.342Z,24.30
2018-09-17T10:55:58.543Z,24.30
2018-09-17T10:57:00.727Z,24.40
2018-09-17T10:58:02.906Z,24.40
2018-09-17T10:59:05.050Z,24.50
2018-09-17T11:00:07.247Z,24.50
2018-09-17T11:01:09.598Z,24.50
2018-09-17T11:02:12.021Z,24.60
2018-09-17T11:03:14.175Z,24.60
2018-09-17T11:04:16.368Z,24.60
2018-09-17T11:05:18.543Z,24.70
2018-09-17T11:06:20.721Z,24.70
2018-09-17T11:07:22.948Z,24.70
2018-09-17T11:08:25.137Z,24.80
2018-09-17T11:09:27.329Z,24.80
2018-09-17T11:10:29.475Z,24.80
2018-09-17T11:11:31.884Z,24.80
2018-09-17T11:12:34.172Z,24.80
2018-09-17T11:13:36.569Z,24.80
2018-09-17T11:14:38.938Z,24.90
2018-09-17T11:15:46.618Z,24.90
2018-09-17T11:16:48.777Z,24.90
2018-09-17T11:17:50.986Z,24.90
2018-09-17T11:18:53.130Z,25.00
2018-09-17T11:19:55.298Z,25.00
2018-09-17T11:20:57.466Z,25.00
2018-09-17T11:21:59.652Z,24.90
2018-09-17T11:23:02.462Z,25.10
2018-09-17T11:24:04.643Z,25.10
2018-09-17T11:25:06.891Z,25.20
2018-09-17T11:26:09.020Z,25.10
2018-09-17T11:27:11.210Z,25.10
2018-09-17T11:28:13.406Z,25.20
2018-09-17T11:29:15.555Z,25.20
2018-09-17T11:30:17.922Z,25.20
2018-09-17T11:31:20.381Z,25.20
2018-09-17T11:32:22.529Z,25.20
2018-09-17T11:33:24.769Z,25.20
2018-09-17T11:34:27.040Z,25.30
2018-09-17T11:35:29.210Z,25.20
2018-09-17T11:36:31.354Z,25.30
2018-09-17T11:37:33.562Z,25.30
2018-09-17T11:38:35.737Z,25.30
2018-09-17T11:39:37.899Z,25.30
2018-09-17T11:40:40.359Z,25.40
2018-09-17T11:41:42.530Z,25.40
2018-09-17T11:42:44.708Z,25.40
2018-09-17T11:43:46.901Z,25.40
2018-09-17T11:44:49.213Z,25.40
2018-09-17T11:45:51.429Z,25.40
2018-09-17T11:46:53.895Z,25.50
2018-09-17T11:47:56.106Z,25.60
2018-09-17T11:48:58.279Z,25.60
2018-09-17T11:50:00.436Z,25.60
2018-09-17T11:51:03.117Z,25.60
2018-09-17T11:52:05.254Z,25.60
2018-09-17T11:53:07.479Z,25.70
2018-09-17T11:54:09.669Z,25.70
2018-09-17T11:55:11.814Z,25.70
2018-09-17T11:56:14.032Z,25.70
2018-09-17T11:57:16.187Z,25.70
2018-09-17T11:58:18.356Z,25.80
2018-09-17T11:59:20.522Z,25.80
2018-09-17T12:00:28.374Z,25.80
2018-09-17T12:01:36.145Z,25.80
2018-09-17T12:02:42.950Z,25.80
2018-09-17T12:03:50.810Z,25.80
2018-09-17T12:04:55.876Z,25.90
2018-09-17T12:05:58.376Z,26.00
2018-09-17T12:07:06.192Z,25.90
2018-09-17T12:08:10.128Z,25.90
2018-09-17T12:09:12.338Z,26.00
2018-09-17T12:10:14.542Z,26.00
2018-09-17T12:11:16.711Z,26.00
2018-09-17T12:12:19.181Z,26.10
2018-09-17T12:13:21.657Z,26.10
2018-09-17T12:14:23.788Z,26.10
2018-09-17T12:15:25.987Z,26.20
2018-09-17T12:16:28.407Z,26.20
2018-09-17T12:17:30.629Z,26.20
2018-09-17T12:18:32.815Z,26.30
2018-09-17T12:19:34.978Z,26.30
2018-09-17T12:20:37.645Z,26.30
2018-09-17T12:21:39.935Z,26.30
2018-09-17T12:22:42.780Z,26.40
2018-09-17T12:23:44.948Z,26.40
2018-09-17T12:24:47.109Z,26.40
2018-09-17T12:25:49.316Z,26.40
2018-09-17T12:26:51.513Z,26.40
2018-09-17T12:27:53.672Z,26.40
2018-09-17T12:28:56.066Z,26.40
2018-09-17T12:29:58.235Z,26.40
2018-09-17T12:31:00.393Z,26.40
2018-09-17T12:32:02.553Z,26.40
2018-09-17T12:33:04.729Z,26.50
2018-09-17T12:34:06.903Z,26.60
2018-09-17T12:35:09.128Z,26.60
2018-09-17T12:36:11.670Z,26.70
2018-09-17T12:37:14.842Z,26.70
2018-09-17T12:38:16.985Z,26.80
2018-09-17T12:39:19.154Z,26.80
2018-09-17T12:40:21.318Z,26.90
2018-09-17T12:41:23.470Z,26.90
2018-09-17T12:42:25.695Z,26.90
2018-09-17T12:43:27.881Z,26.90
2018-09-17T12:44:30.065Z,26.90
2018-09-17T12:45:32.789Z,26.90
2018-09-17T12:46:34.979Z,27.00
2018-09-17T12:47:37.405Z,27.00
2018-09-17T12:48:39.566Z,27.00
2018-09-17T12:49:42.036Z,27.10
2018-09-17T12:50:44.315Z,27.20
2018-09-17T12:51:46.555Z,27.10
2018-09-17T12:52:48.920Z,27.20
2018-09-17T12:53:51.166Z,27.20
2018-09-17T12:54:54.062Z,27.20
2018-09-17T12:55:56.302Z,27.30
2018-09-17T12:56:58.811Z,27.40
2018-09-17T12:58:00.918Z,27.30
2018-09-17T12:59:03.117Z,27.30
2018-09-17T13:00:05.872Z,27.40
2018-09-17T13:01:08.059Z,27.50
2018-09-17T13:02:10.207Z,27.50
2018-09-17T13:03:12.347Z,27.60
2018-09-17T13:04:14.493Z,27.60
2018-09-17T13:05:16.645Z,27.60
2018-09-17T13:06:18.885Z,27.70
2018-09-17T13:07:21.042Z,27.70
2018-09-17T13:08:23.235Z,27.70
2018-09-17T13:09:25.377Z,27.80
2018-09-17T13:10:27.580Z,27.70
2018-09-17T13:11:29.747Z,27.70
2018-09-17T13:12:31.923Z,27.70
2018-09-17T13:13:37.037Z,27.70
2018-09-17T13:14:39.216Z,27.70
2018-09-17T13:15:47.138Z,27.60
2018-09-17T13:16:49.345Z,27.60
2018-09-17T13:17:51.470Z,27.70
2018-09-17T13:18:53.614Z,27.80
2018-09-17T13:19:56.027Z,27.70
2018-09-17T13:20:58.171Z,27.80
2018-09-17T13:22:00.314Z,27.80
2018-09-17T13:23:02.501Z,27.80
2018-09-17T13:24:05.325Z,27.80
2018-09-17T13:25:07.486Z,27.90
2018-09-17T13:26:09.622Z,28.00
2018-09-17T13:27:11.784Z,28.00
2018-09-17T13:28:14.413Z,28.10